Flight Track Log - Related Links

Times and Time Zones

All times are in EDT time to prevent confusion due to time zone crossing. See the DAL181 flight status page for this flight to view local times or setup timezone preferences in your user account.

Time Position Orientation Groundspeed Altitude Reporting Facility
EDT Latitude Longitude Course Direction KTS MPH feet Rate Location/Type
09:40AM 40.7333 -73.8333 323° Northwest 193 222 2,900  Level New York TRACON
09:41AM 40.7667 -73.7667 57° Northeast 266 306 5,500 2,746 Climbing New York TRACON
09:42AM 41.0127 -74.0587 304° West  Level FlightAware Approximate
09:43AM 41.0990 -74.1104 333° Northwest  Level FlightAware Approximate
09:43AM 40.9208 -73.8769 332° Northwest 292 336 12,100  Level New York Center
09:44AM 41.1826 -74.1764 327° Northwest  Level FlightAware Approximate
09:44AM 40.9958 -73.9492 324° Northwest 316 364 14,600  Level New York Center
09:45AM 41.2640 -74.2476 327° Northwest  Level FlightAware Approximate
09:45AM 41.0669 -74.0186 324° Northwest 344 396 16,300  Level New York Center
09:46AM 41.3468 -74.3135 323° Northwest  Level FlightAware Approximate
09:46AM 41.1600 -74.1222 320° Northwest 375 432 18,600  Level New York Center
09:47AM 41.2064 -74.2458 297° West 375 432 20,500 1,884 Climbing New York Center
09:48AM 41.2522 -74.3781 295° West 380 437 22,400 2,136 Climbing New York Center
09:49AM 41.2942 -74.5044 294° West 386 444 24,700 1,311 Climbing New York Center
09:50AM 41.3339 -74.6281 293° West 386 444 25,000 1,033 Climbing New York Center
09:51AM 41.3797 -74.7581 295° West 386 444 26,800 1,756 Climbing New York Center
09:52AM 41.4231 -74.8906 294° West 386 444 28,600 1,932 Climbing New York Center
09:53AM 41.4642 -75.0178 293° West 380 437 30,600 1,780 Climbing New York Center
09:54AM 41.5056 -75.1422 294° West 380 437 32,100 1,190 Climbing New York Center
09:55AM 41.5469 -75.2614 295° West 370 426 33,000 793 Climbing New York Center
09:56AM 41.5861 -75.3803 294° West 359 413 33,700 857 Climbing New York Center
09:57AM 41.6269 -75.5053 294° West 359 413 34,700 1,050 Climbing New York Center
09:58AM 41.6658 -75.6247 294° West 359 413 35,800 645 Climbing New York Center
09:59AM 41.7067 -75.7444 295° West 359 413 36,000 101 Climbing New York Center
10:00AM 41.7453 -75.8667 293° West 359 413 36,000  Level New York Center
10:01AM 41.7858 -75.9867 294° West 359 413 36,000  Level New York Center
10:02AM 41.8242 -76.1094 293° West 359 413 36,000  Level New York Center
10:03AM 41.8625 -76.2294 293° West 359 413 36,000  Level New York Center
10:04AM 41.9006 -76.3525 293° West 359 413 36,000  Level New York Center
10:05AM 41.9386 -76.4728 293° West 359 413 36,000  Level New York Center
10:06AM 41.9761 -76.5958 292° West 359 413 36,000  Level New York Center
10:09AM 42.0633 -76.8708 293° West 361 415 36,000  Level Cleveland Center
10:10AM 42.1061 -77.0131 292° West 345 397 36,000  Level Cleveland Center
10:11AM 42.1408 -77.1269 292° West 331 381 36,000  Level Cleveland Center
10:12AM 42.1764 -77.2458 292° West 339 390 36,000  Level Cleveland Center
10:13AM 42.2128 -77.3658 292° West 341 392 36,000  Level Cleveland Center
10:14AM 42.2492 -77.4875 292° West 345 397 36,000  Level Cleveland Center
10:15AM 42.2872 -77.6086 293° West 346 398 36,000  Level Cleveland Center
10:16AM 42.3278 -77.7319 294° West 352 405 36,000  Level Cleveland Center
10:17AM 42.3681 -77.8542 294° West 354 407 36,000  Level Cleveland Center
10:18AM 42.4069 -77.9764 293° West 353 406 36,000  Level Cleveland Center
10:19AM 42.4458 -78.0989 293° West 353 406 36,000  Level Cleveland Center
10:20AM 42.4850 -78.2225 293° West 353 406 36,000  Level Cleveland Center
10:21AM 42.5236 -78.3444 293° West 353 406 36,000  Level Cleveland Center
10:22AM 42.5561 -78.4714 289° West 355 409 36,000  Level Cleveland Center
10:23AM 42.5683 -78.6306 276° West 356 410 36,000  Level Cleveland Center
10:24AM 42.5783 -78.7625 276° West 354 407 36,000  Level Cleveland Center
10:25AM 42.5867 -78.8936 275° West 352 405 36,000  Level Cleveland Center
10:26AM 42.5958 -79.0236 276° West 350 403 36,000  Level Cleveland Center
10:27AM 42.6056 -79.1556 276° West 352 405 36,000  Level Cleveland Center
10:28AM 42.6147 -79.2864 275° West 351 404 36,000  Level Cleveland Center
10:29AM 42.6233 -79.4169 275° West 348 400 36,000  Level Cleveland Center
10:30AM 42.6317 -79.5481 275° West 348 400 36,000  Level Cleveland Center
10:31AM 42.6400 -79.6794 275° West 350 403 36,000  Level Cleveland Center
10:32AM 42.6472 -79.8103 274° West 349 402 36,000 -393 Level Cleveland Center
10:33AM 42.6564 -79.9689 275° West 350 403 35,200 -878 Descending Cleveland Center
10:34AM 42.6642 -80.0822 275° West 350 403 34,200 -1,122 Descending Cleveland Center
10:35AM 42.6722 -80.2397 274° West 354 407 32,900 -2,164 Descending Cleveland Center
10:36AM 42.6808 -80.3797 275° West 365 420 29,800 -2,410 Descending Cleveland Center
10:37AM 42.6894 -80.5214 275° West 371 427 28,000 -934 Descending Cleveland Center
10:38AM 42.6975 -80.6647 274° West 374 430 27,900 -1,024 Descending Cleveland Center
10:39AM 42.7053 -80.8081 274° West 377 434 25,900 -1,756 Descending Cleveland Center
10:40AM 42.7047 -80.9450 270° West 362 417 24,300 -934 Descending Cleveland Center
10:41AM 42.6883 -81.0761 260° West 351 404 24,000 -148 Descending Cleveland Center
10:42AM 42.6731 -81.2072 261° West 351 404 24,000  Level Cleveland Center
10:43AM 42.6583 -81.3389 261° West 350 403 24,000  Level Cleveland Center
10:44AM 42.6425 -81.4697 261° West 350 403 24,000  Level Cleveland Center
10:45AM 42.6269 -81.6028 261° West 352 405 24,000  Level Cleveland Center
10:46AM 42.6117 -81.7325 261° West 348 400 24,000 -1,131 Level Cleveland Center
10:48AM 42.5944 -81.8692 260° West 329 379 21,700 -2,016 Descending Cleveland Center
10:49AM 42.5797 -81.9900 261° West 329 379 19,900 -1,426 Descending Cleveland Center
10:50AM 42.5675 -82.0989 261° West 292 336 18,800 -1,574 Descending Cleveland Center
10:51AM 42.5553 -82.1964 260° West 270 311 16,700 -2,607 Descending Cleveland Center
10:52AM 42.5436 -82.2950 261° West 263 303 13,500 -2,311 Descending Cleveland Center
10:53AM 42.5292 -82.4031 260° West 285 328 12,000 -738 Descending Cleveland Center
10:54AM 42.5147 -82.5061 259° West 284 327 12,000  Level Cleveland Center
10:55AM 42.5158 -82.6078 271° West 289 333 12,000  Level Cleveland Center
10:57AM 42.6403 -82.5144 29° Northeast 298 343 12,000  Level Cleveland Center
10:58AM 42.6800 -82.3928 66° East 295 339 12,000  Level Cleveland Center
10:59AM 42.6256 -82.3258 138° Southeast 288 331 12,000 63 Level Cleveland Center
10:59AM 42.5839 -82.3581 210° Southwest 272 313 12,100  Climbing Cleveland Center
11:00AM 42.5717 -82.3922 244° Southwest 280 322 12,000 -76 Descending Cleveland Center
11:01AM 42.5353 -82.4822 241° Southwest 283 326 12,000  Level Cleveland Center
11:01AM 42.5342 -82.4872 253° West 282 325 12,000  Level Cleveland Center
11:02AM 42.4994 -82.5767 242° Southwest 283 326 12,000  Level Cleveland Center
11:02AM 42.4969 -82.5814 234° Southwest 283 326 12,000  Level Cleveland Center
11:03AM 42.4644 -82.6772 245° Southwest 283 326 12,000  Level Cleveland Center
11:04AM 42.4314 -82.7656 243° Southwest 278 320 12,000  Level Cleveland Center
11:04AM 42.4306 -82.7714 259° West 281 323 12,000 109 Level Cleveland Center
11:05AM 42.4042 -82.8525 246° West 271 312 12,100  Climbing Cleveland Center
11:05AM 42.4000 -82.8614 238° Southwest 270 311 12,000 -109 Descending Cleveland Center
11:05AM 42.3783 -82.9197 243° Southwest 206 237 12,000  Level Cleveland Center
11:06AM 42.3731 -82.9328 241° Southwest 226 260 12,000  Level Cleveland Center
11:07AM 42.3475 -82.9972 242° Southwest 211 243 12,000  Level Cleveland Center
11:07AM 42.3450 -83.0047 246° West 219 252 12,000  Level Cleveland Center
11:08AM 42.3211 -83.0700 244° Southwest 219 252 12,000  Level Cleveland Center
11:08AM 42.3181 -83.0789 245° Southwest 219 252 12,000 -545 Level Cleveland Center
11:09AM 42.2964 -83.1711 252° West 212 244 11,300 -492 Descending Cleveland Center
11:10AM 42.2711 -83.2281 239° Southwest 218 251 11,000 -162 Descending Cleveland Center
11:11AM 42.2164 -83.2614 204° Southwest 222 255 11,000  Level Cleveland Center
11:11AM 42.2128 -83.2597 161° South 237 273 11,000 -1,082 Level Cleveland Center
11:12AM 42.1550 -83.2697 187° South 224 258 9,900 -1,355 Descending Cleveland Center
11:12AM 42.1414 -83.2692 178° South 224 258 9,600 -885 Descending Cleveland Center
11:13AM 42.0983 -83.2983 207° Southwest 211 243 9,000 -787 Descending Cleveland Center
11:13AM 42.0867 -83.3022 194° South 213 245 8,800 -1,279 Descending Cleveland Center
11:14AM 42.0453 -83.3333 209° Southwest 202 232 7,700 -1,279 Descending Cleveland Center
11:14AM 42.0372 -83.3381 204° Southwest 205 236 7,500 -689 Descending Cleveland Center
11:15AM 41.9922 -83.3681 206° Southwest 214 246 7,000 -590 Descending Cleveland Center
11:15AM 41.9836 -83.3742 208° Southwest 208 239 6,900 -1,082 Descending Cleveland Center
11:16AM 41.9392 -83.4025 205° Southwest 212 244 5,900 -1,082 Descending Cleveland Center
11:16AM 41.9294 -83.4103 211° Southwest 211 243 5,800 -885 Descending Cleveland Center
11:17AM 41.8839 -83.4397 206° Southwest 225 259 5,000 -885 Descending Cleveland Center
11:17AM 41.8767 -83.4453 210° Southwest 219 252 4,900 -590 Descending Cleveland Center
11:18AM 41.8283 -83.4794 208° Southwest 224 258 4,400 -689 Descending Cleveland Center
11:18AM 41.8211 -83.4817 193° South 219 252 4,200 -400 Descending Cleveland Center
11:19AM 41.7733 -83.5136 207° Southwest 218 251 4,000 -194 Descending Cleveland Center
11:19AM 41.7669 -83.5194 214° Southwest 219 252 4,000  Level Cleveland Center
11:20AM 41.7244 -83.5486 207° Southwest 220 253 4,000  Level Cleveland Center
11:20AM 41.7131 -83.5572 209° Southwest 219 252 4,000  Level Cleveland Center
11:21AM 41.6706 -83.5914 211° Southwest 222 255 4,000  Level Cleveland Center
11:21AM 41.6669 -83.6067 252° West 226 260 4,000  Level Cleveland Center
11:22AM 41.6786 -83.6736 283° West 209 241 4,000  Level Cleveland Center
11:22AM 41.6778 -83.6769 251° West 201 231 4,000 98 Level Cleveland Center
11:23AM 41.7033 -83.7303 303° West 167 192 4,100 98 Climbing Cleveland Center
11:23AM 41.7133 -83.7289 North 187 215 4,100 -109 Level Cleveland Center
11:24AM 41.7419 -83.7192 14° North 154 177 4,000 -98 Descending Cleveland Center
11:24AM 41.7531 -83.7114 28° Northeast 157 181 4,000  Level Cleveland Center
11:25AM 41.7797 -83.6939 26° Northeast 156 180 4,000  Level Cleveland Center
11:25AM 41.7922 -83.6836 32° Northeast 156 180 4,000  Level Cleveland Center
11:26AM 41.8178 -83.6628 31° Northeast 156 180 4,000  Level Cleveland Center
11:26AM 41.8294 -83.6561 23° Northeast 156 180 4,000  Level Cleveland Center
11:27AM 41.8578 -83.6350 29° Northeast 153 176 4,000  Level Cleveland Center
11:27AM 41.8669 -83.6289 26° Northeast 156 180 4,000  Level Cleveland Center
11:28AM 41.8892 -83.6114 30° Northeast 125 144 4,000  Level Cleveland Center
11:28AM 41.8978 -83.6067 22° Northeast 137 158 4,000  Level Cleveland Center
11:29AM 41.9178 -83.5931 27° Northeast 125 144 4,000  Level Cleveland Center
11:29AM 41.9275 -83.5856 30° Northeast 126 145 4,000  Level Cleveland Center
11:30AM 41.9514 -83.5672 30° Northeast 125 144 4,000  Level Cleveland Center
11:30AM 41.9581 -83.5631 25° Northeast 126 145 4,000  Level Cleveland Center
11:31AM 41.9800 -83.5489 26° Northeast 124 143 4,000  Level Cleveland Center
11:31AM 41.9883 -83.5408 36° Northeast 126 145 4,000  Level Cleveland Center
11:32AM 42.0092 -83.5250 29° Northeast 122 140 4,000  Level Cleveland Center
11:32AM 42.0181 -83.5189 27° Northeast 126 145 4,000  Level Cleveland Center
11:33AM 42.0403 -83.5039 27° Northeast 123 142 4,000  Level Cleveland Center
11:33AM 42.0536 -83.4933 30° Northeast 125 144 4,000 -179 Level Cleveland Center
11:34AM 42.0736 -83.4778 30° Northeast 121 139 3,800 -393 Descending Cleveland Center
11:34AM 42.0828 -83.4717 26° Northeast 124 143 3,600 -716 Descending Cleveland Center
11:35AM 42.1050 -83.4542 30° Northeast 114 131 3,000 -774 Descending Cleveland Center
11:35AM 42.1117 -83.4506 22° Northeast 123 142 2,800 -545 Descending Cleveland Center
11:36AM 42.1272 -83.4375 32° Northeast 92 106 2,500 -492 Descending Cleveland Center
11:36AM 42.1361 -83.4333 19° North 113 130 2,300 -627 Descending Cleveland Center
11:37AM 42.1558 -83.4192 28° Northeast 108 124 1,800 -590 Descending Cleveland Center
11:37AM 42.1606 -83.4153 31° Northeast 105 121 1,700 -667 Descending Cleveland Center
11:38AM 42.1806 -83.4000 30° Northeast 121 139 1,200 -689 Descending Cleveland Center
11:38AM 42.1881 -83.3931 34° Northeast 109 125 1,000 -341 Descending Cleveland Center
11:39AM 42.2225 -83.3672 29° Northeast 112 129 700 -290 Descending Cleveland Center

Login

Don't have an account? Register now (free) for customized features, flight alerts, and more!